Pitt Greenville Airport
KPGV : now visible

Airfield :











YOU CAN JOIN US ON...

 
LOGIN :

Register | Disclaimer

   EN    FR    IT 

 









Legend :    VFR   Marginal VFR   IFR   Intensive IFR   Very Intensive IFR
Visi :
Ceiling :
>= 8 km
>= 3000ft
5 to 8 km
1000 to 3000 ft
1500m to 5 km
500 to 1000 ft
800 to 1500m
200 to 500 ft
< 800m
< 200 ft
Symbols :   Thunderstorms  Fog  Heavy snow  Heavy precipitations  Wind > 20 kt






- Airport Elevation : 26 ft


KPGV - Pitt Greenville

CURRENT METAR :
  • 291755Z AUTO 23005KT 10SM -RA SCT003 24/22 A3008 RMK AO2 P0007

EXPIRED METARs :
  • 291735Z AUTO 24004KT 7SM CLR 24/22 A3007 RMK AO2 P0005
  • 291715Z AUTO 21004KT 10SM CLR 24/22 A3008 RMK AO2 P0002
  • 291655Z AUTO 00000KT 10SM SCT002 SCT010 SCT018 23/21 A3007 RMK AO2 P0008
  • 291635Z AUTO 31004KT 5SM RA SCT003 BKN011 OVC028 22/21 A3009 RMK AO2 P0005
  • 291615Z AUTO 25004KT 5SM RA SCT004 BKN011 BKN031 23/21 A3010 RMK AO2 P0002
  • 291555Z AUTO 25011G15KT 7SM SCT018 SCT032 27/25 A3009 RMK AO2 P0009
  • 291535Z AUTO 00000KT 5SM -RA SCT003 SCT006 SCT017 25/23 A3009 RMK AO2 P0005
  • 291515Z AUTO 24005G08KT 1 1/2SM +RA BKN006 OVC019 24/23 A3009 RMK AO2 P0002
  • 291455Z AUTO 00000KT 7SM SCT004 SCT008 BKN026 27/23 A3008 RMK AO2 P0001

TAF KPGV
Valid from the 29 at 18:00 until the 30 at 18:00 UTC


291730Z 2918/3018 20007KT P6SM VCSH OVC050
FM300700 21005KT P6SM OVC017
FM300900 21004KT 6SM BR OVC008
FM301300 23005KT P6SM VCTS BKN010CB AMD LTD TO CLD VIS AND WIND
KZDC FIR / North America



MET'MAP, your aeronautical weather chart ! - Copyright ORBIFLY December 2007 - Disclaimer

ORBIFLY MET'MAP TEAM :

Programming & Development : Alexandra Zaïnal
Concept & original design : Baudouin d'Aumeries
Assistance for programming : Marc-Olivier Méhu
Technical & hardware support : Manuel Goepfert

Contact : metmap@orbifly.com




SOURCES & CREDITS :

   NOAA       Earth
Advisory